May, TX (76857)

6:57 PM CST on February 05, 2016 (GMT -0600)
Rising Star | | Change Station
CLOSE
Current Station
Personal Weather Station
Location: Rising Star, TX
Elevation: 1585 ft
Nearby Weather Stations

Elev 1585 ft 32.09 °N, 98.91 °W | Updated 1 second ago

Mostly Cloudy
Mostly Cloudy
52.2 °F
Feels Like 52.2 °F
N
0.0
Wind Variable Wind from SSE
Gusts 0.0 mph

Today
High -- | Low -- °F
--% Chance of Precip.
Yesterday
High -- | Low -- °F
Precip. -- in
Pressure 30.24 in
Visibility 10.0 miles
Clouds Few 7500 ft
Mostly Cloudy 9000 ft
Dew Point 25 °F
Humidity 35%
Rainfall 0.00 in
Snow Depth Not available.
7:27 AM 6:13 PM
Waning Crescent, 8% visible
METAR KBWD 060035Z AUTO 15005KT 10SM FEW075 BKN090 12/M05 A3024 RMK AO2
Pressure 30.24 in
Visibility 10.0 miles
Clouds Few 7500 ft
Mostly Cloudy 9000 ft
Dew Point 25 °F
Humidity 35%
Rainfall 0.00 in
Snow Depth Not available.
7:27 AM 6:13 PM
Waning Crescent, 8% visible
METAR KBWD 060035Z AUTO 15005KT 10SM FEW075 BKN090 12/M05 A3024 RMK AO2

10-Day Weather Forecast

Almanac

Astronomy

Feb. 05, 2016 Rise Set
Actual Time
Civil Twilight
Nautical Twilight
Astronomical Twilight
Moon
Length of Visible Light
Length of Day
Tomorrow will be .
, % of the Moon is Illuminated

Today's Extremes

State Highs State Lows

Community

WunderPhotos

Upload Photos

1,890,900 photos uploaded!

WunderBlog® & News

Nearby

Air Quality

  Air Quality AQ Index Pollutant
Not available.

Snow Depth

Station Depth Elevation

Earthquake Activity

City Distance Mag. Time & Date
Minimum magnitude displayed is 2.5.

Coastal Water Temperatures

Place Temperature

Stations

Nearby Weather Stations

Station Location Temp. Windchill Dew Point Humidity Wind Precip. Elev Updated Type
                   

Watches & Warnings

There are currently no watches in effect.